createdAt,value
2022-11-24T00:01:12.219Z,76.94
2022-11-24T00:03:45.118Z,77.03
2022-11-24T00:06:18.726Z,76.99
2022-11-24T00:08:51.827Z,77.05
2022-11-24T00:11:27.425Z,77.04
2022-11-24T00:14:00.227Z,76.97
2022-11-24T00:16:34.158Z,76.96
2022-11-24T00:19:09.347Z,77.13
2022-11-24T00:21:41.711Z,77.19
2022-11-24T00:24:14.773Z,77.17
2022-11-24T00:26:47.286Z,77.15
2022-11-24T00:29:19.907Z,77.14
2022-11-24T00:31:52.647Z,77.04
2022-11-24T00:34:25.830Z,76.92
2022-11-24T00:37:00.812Z,77.04
2022-11-24T00:39:34.533Z,76.97
2022-11-24T00:42:07.413Z,77.06
2022-11-24T00:44:40.633Z,77.01
2022-11-24T00:47:13.600Z,76.97
2022-11-24T00:49:46.577Z,77.03
2022-11-24T00:52:18.919Z,77.12
2022-11-24T00:54:51.816Z,77.08
2022-11-24T00:57:25.198Z,76.98
2022-11-24T00:59:57.854Z,77.16
2022-11-24T01:02:30.756Z,77.21
2022-11-24T01:05:03.703Z,77.35
2022-11-24T01:07:37.017Z,77.41
2022-11-24T01:10:11.381Z,77.41
2022-11-24T01:12:44.333Z,77.50
2022-11-24T01:15:16.855Z,77.71
2022-11-24T01:17:49.843Z,77.66
2022-11-24T01:20:23.705Z,77.66
2022-11-24T01:22:56.044Z,77.82
2022-11-24T01:25:28.410Z,77.89
2022-11-24T01:28:01.324Z,77.88
2022-11-24T01:30:33.844Z,77.86
2022-11-24T01:33:06.397Z,77.92
2022-11-24T01:35:39.562Z,77.75
2022-11-24T01:38:12.028Z,77.88
2022-11-24T01:40:45.370Z,77.75
2022-11-24T01:43:23.608Z,77.77
2022-11-24T01:45:57.426Z,77.92
2022-11-24T01:48:34.076Z,77.81
2022-11-24T01:51:13.270Z,77.91
2022-11-24T01:53:50.551Z,77.90
2022-11-24T01:56:24.045Z,77.96
2022-11-24T01:59:01.967Z,77.79
2022-11-24T02:01:35.549Z,78.04
2022-11-24T02:04:11.863Z,78.03
2022-11-24T02:06:47.842Z,78.18
2022-11-24T02:09:27.837Z,78.27
2022-11-24T02:12:03.273Z,78.21
2022-11-24T02:14:39.602Z,78.04
2022-11-24T02:17:11.974Z,78.03
2022-11-24T02:19:53.911Z,78.01
2022-11-24T02:22:35.477Z,78.07
2022-11-24T02:25:18.245Z,78.12
2022-11-24T02:27:53.851Z,78.05
2022-11-24T02:30:26.954Z,77.83
2022-11-24T02:33:00.426Z,77.82
2022-11-24T02:35:34.299Z,77.83
2022-11-24T02:38:06.711Z,78.00
2022-11-24T02:40:39.489Z,77.88
2022-11-24T02:43:15.358Z,77.98
2022-11-24T02:45:47.972Z,77.96
2022-11-24T02:48:20.781Z,78.01
2022-11-24T02:50:53.248Z,78.03
2022-11-24T02:53:27.212Z,77.83
2022-11-24T02:56:01.188Z,77.96
2022-11-24T02:58:33.658Z,78.14
2022-11-24T03:01:07.798Z,77.97
2022-11-24T03:03:41.840Z,78.28
2022-11-24T03:06:14.463Z,78.00
2022-11-24T03:08:46.955Z,78.25
2022-11-24T03:11:19.628Z,78.23
2022-11-24T03:13:52.820Z,78.32
2022-11-24T03:16:25.609Z,78.36
2022-11-24T03:18:58.122Z,78.43
2022-11-24T03:21:30.566Z,78.29
2022-11-24T03:24:03.037Z,77.98
2022-11-24T03:26:37.091Z,77.92
2022-11-24T03:29:09.642Z,78.26
2022-11-24T03:31:42.094Z,78.29
2022-11-24T03:34:15.591Z,78.34
2022-11-24T03:36:47.960Z,78.47
2022-11-24T03:39:20.527Z,78.33
2022-11-24T03:41:53.668Z,78.34
2022-11-24T03:44:26.096Z,78.22
2022-11-24T03:46:58.676Z,78.26
2022-11-24T03:49:31.067Z,78.29
2022-11-24T03:52:07.772Z,78.40
2022-11-24T03:54:40.618Z,78.39
2022-11-24T03:57:13.327Z,78.51
2022-11-24T03:59:45.919Z,78.47
2022-11-24T04:02:18.342Z,78.42
2022-11-24T04:04:52.690Z,78.44
2022-11-24T04:07:25.220Z,78.50
2022-11-24T04:09:57.684Z,78.57
2022-11-24T04:12:45.145Z,78.70
2022-11-24T04:15:19.818Z,78.46
2022-11-24T04:17:52.823Z,78.51
2022-11-24T04:20:25.715Z,78.65
2022-11-24T04:22:58.184Z,78.64
2022-11-24T04:25:30.526Z,78.70
2022-11-24T04:28:03.439Z,78.80
2022-11-24T04:30:36.278Z,78.80
2022-11-24T04:33:08.942Z,78.85
2022-11-24T04:35:41.488Z,78.89
2022-11-24T04:38:13.799Z,78.89
2022-11-24T04:41:06.517Z,78.80
2022-11-24T04:43:40.865Z,78.85
2022-11-24T04:46:14.059Z,78.80
2022-11-24T04:48:46.518Z,78.91
2022-11-24T04:51:18.883Z,78.89
2022-11-24T04:53:52.664Z,78.80
2022-11-24T04:56:25.149Z,78.81
2022-11-24T04:58:57.468Z,78.95
2022-11-24T05:01:30.010Z,79.10
2022-11-24T05:04:03.158Z,79.11
2022-11-24T05:06:35.645Z,79.12
2022-11-24T05:09:09.202Z,79.18
2022-11-24T05:11:42.089Z,79.14
2022-11-24T05:14:14.431Z,79.20
2022-11-24T05:16:47.207Z,79.17
2022-11-24T05:19:20.110Z,79.20
2022-11-24T05:21:54.404Z,79.19
2022-11-24T05:24:27.172Z,79.33
2022-11-24T05:27:00.351Z,79.30
2022-11-24T05:29:33.290Z,79.25
2022-11-24T05:32:07.206Z,79.22
2022-11-24T05:34:39.722Z,79.25
2022-11-24T05:37:12.597Z,79.27
2022-11-24T05:39:44.927Z,79.26
2022-11-24T05:42:34.719Z,79.32
2022-11-24T05:45:09.901Z,79.28
2022-11-24T05:47:43.203Z,79.26
2022-11-24T05:50:17.277Z,79.46
2022-11-24T05:52:50.198Z,79.50
2022-11-24T05:55:23.179Z,79.50
2022-11-24T05:58:02.204Z,79.31
2022-11-24T06:00:35.786Z,79.34
2022-11-24T06:03:09.243Z,79.49
2022-11-24T06:05:41.993Z,79.54
2022-11-24T06:08:14.879Z,79.75
2022-11-24T06:10:48.164Z,79.52
2022-11-24T06:13:20.710Z,79.51
2022-11-24T06:15:53.646Z,79.53
2022-11-24T06:18:28.517Z,79.56
2022-11-24T06:21:10.949Z,79.50
2022-11-24T06:23:44.283Z,79.61
2022-11-24T06:26:18.042Z,79.64
2022-11-24T06:28:50.894Z,79.61
2022-11-24T06:31:23.748Z,79.55
2022-11-24T06:33:57.743Z,79.64
2022-11-24T06:36:31.062Z,79.72
2022-11-24T06:39:06.180Z,79.83
2022-11-24T06:41:39.637Z,79.68
2022-11-24T06:44:15.286Z,79.56
2022-11-24T06:46:52.707Z,79.60
2022-11-24T06:49:26.851Z,79.56
2022-11-24T06:52:02.403Z,79.59
2022-11-24T06:54:37.578Z,79.50
2022-11-24T06:57:14.418Z,79.35
2022-11-24T06:59:47.818Z,79.58
2022-11-24T07:02:20.283Z,79.56
2022-11-24T07:04:52.774Z,79.50
2022-11-24T07:07:25.797Z,79.40
2022-11-24T07:09:58.274Z,79.52
2022-11-24T07:12:35.285Z,79.30
2022-11-24T07:15:11.290Z,79.43
2022-11-24T07:17:45.540Z,79.60
2022-11-24T07:20:18.670Z,79.48
2022-11-24T07:22:51.730Z,79.44
2022-11-24T07:25:24.201Z,79.43
2022-11-24T07:28:01.482Z,79.36
2022-11-24T07:30:35.295Z,79.36
2022-11-24T07:33:07.671Z,79.37
2022-11-24T07:35:40.122Z,79.30
2022-11-24T07:38:12.491Z,79.27
2022-11-24T07:40:44.909Z,79.25
2022-11-24T07:43:20.368Z,79.05
2022-11-24T07:45:57.262Z,79.07
2022-11-24T07:48:30.686Z,79.07
2022-11-24T07:51:04.481Z,79.19
2022-11-24T07:53:37.868Z,79.26
2022-11-24T07:56:12.730Z,79.34
2022-11-24T07:58:49.775Z,79.24
2022-11-24T08:01:25.244Z,79.24
2022-11-24T08:03:58.167Z,79.32
2022-11-24T08:06:39.766Z,79.38
2022-11-24T08:09:18.047Z,79.30
2022-11-24T08:11:50.764Z,79.38
2022-11-24T08:14:27.858Z,79.15
2022-11-24T08:17:02.346Z,79.26
2022-11-24T08:19:36.319Z,79.26
2022-11-24T08:22:10.535Z,79.35
2022-11-24T08:24:47.944Z,79.33
2022-11-24T08:27:21.368Z,79.38
2022-11-24T08:29:53.743Z,79.32
2022-11-24T08:32:26.686Z,79.19
2022-11-24T08:35:13.451Z,79.30
2022-11-24T08:37:47.047Z,79.19
2022-11-24T08:40:22.917Z,79.15
2022-11-24T08:42:55.637Z,79.22
2022-11-24T08:45:30.770Z,79.20
2022-11-24T08:48:03.821Z,79.35
2022-11-24T08:50:36.394Z,79.22
2022-11-24T08:53:08.810Z,79.22
2022-11-24T08:55:42.221Z,79.18
2022-11-24T08:58:17.197Z,78.96
2022-11-24T09:00:51.542Z,79.12
2022-11-24T09:03:24.783Z,79.18
2022-11-24T09:05:58.075Z,79.23
2022-11-24T09:08:32.699Z,79.25
2022-11-24T09:11:08.455Z,79.28
2022-11-24T09:13:42.478Z,79.26
2022-11-24T09:16:17.911Z,79.31
2022-11-24T09:18:55.997Z,79.16
2022-11-24T09:21:30.126Z,79.29
2022-11-24T09:24:05.343Z,79.33
2022-11-24T09:26:46.155Z,79.32
2022-11-24T09:29:21.284Z,79.18
2022-11-24T09:31:53.643Z,79.29
2022-11-24T09:34:26.095Z,79.30
2022-11-24T09:36:59.354Z,79.25
2022-11-24T09:39:32.202Z,79.18
2022-11-24T09:42:17.011Z,79.23
2022-11-24T09:45:15.342Z,79.31
2022-11-24T09:48:04.813Z,79.38
2022-11-24T09:50:40.276Z,79.20
2022-11-24T09:53:19.007Z,79.28
2022-11-24T09:55:55.603Z,79.23
2022-11-24T09:58:50.759Z,79.08
2022-11-24T10:01:26.085Z,79.09
2022-11-24T10:04:05.588Z,79.21
2022-11-24T10:06:48.957Z,78.97
2022-11-24T10:09:39.185Z,78.91
2022-11-24T10:12:24.423Z,78.84
2022-11-24T10:15:14.923Z,78.79
2022-11-24T10:17:56.115Z,78.66
2022-11-24T10:20:35.848Z,78.55
2022-11-24T10:23:25.621Z,78.69
2022-11-24T10:26:01.614Z,78.49
2022-11-24T10:28:37.037Z,78.69
2022-11-24T10:31:24.103Z,78.55
2022-11-24T10:33:58.244Z,78.40
2022-11-24T10:36:45.001Z,78.39
2022-11-24T10:39:23.731Z,78.24
2022-11-24T10:42:02.753Z,78.16
2022-11-24T10:44:35.779Z,78.24
2022-11-24T10:47:19.925Z,78.41
2022-11-24T10:50:03.254Z,78.28
2022-11-24T10:52:44.051Z,78.17
2022-11-24T10:55:21.594Z,78.07
2022-11-24T10:57:54.598Z,78.07
2022-11-24T11:00:37.139Z,78.00
2022-11-24T11:03:21.730Z,78.12
2022-11-24T11:05:58.400Z,78.04
2022-11-24T11:08:32.253Z,78.17
2022-11-24T11:11:22.045Z,78.16
2022-11-24T11:14:03.989Z,77.97
2022-11-24T11:16:41.305Z,78.15
2022-11-24T11:19:50.680Z,78.29
2022-11-24T11:22:29.054Z,78.01
2022-11-24T11:25:24.982Z,78.09
2022-11-24T11:28:19.250Z,77.76
2022-11-24T11:31:22.134Z,78.08
2022-11-24T11:34:21.882Z,77.77
2022-11-24T11:36:57.393Z,77.73
2022-11-24T11:39:33.558Z,77.70
2022-11-24T11:42:45.229Z,77.53
2022-11-24T11:45:26.680Z,77.80
2022-11-24T11:48:12.011Z,77.83
2022-11-24T11:53:50.339Z,77.53
2022-11-24T11:56:30.460Z,77.47
2022-11-24T11:59:24.773Z,77.51
2022-11-24T12:02:24.687Z,77.41
2022-11-24T12:05:02.459Z,77.41
2022-11-24T12:07:50.268Z,77.44
2022-11-24T12:10:35.154Z,77.36
2022-11-24T12:13:43.622Z,77.18
2022-11-24T12:16:35.810Z,77.16
2022-11-24T12:19:29.212Z,77.03
2022-11-24T12:22:15.108Z,76.82
2022-11-24T12:24:57.520Z,76.83
2022-11-24T12:27:46.619Z,76.79
2022-11-24T12:30:22.490Z,76.60
2022-11-24T12:33:18.309Z,76.56
2022-11-24T12:36:03.780Z,76.16
2022-11-24T12:38:56.420Z,76.37
2022-11-24T12:41:42.775Z,76.07
2022-11-24T12:44:32.792Z,76.08
2022-11-24T12:47:17.980Z,75.85
2022-11-24T12:50:04.605Z,75.87
2022-11-24T12:52:41.347Z,75.59
2022-11-24T12:55:19.863Z,75.49
2022-11-24T12:58:10.592Z,75.19
2022-11-24T13:00:59.508Z,75.12
2022-11-24T13:03:46.763Z,75.12
2022-11-24T13:06:23.695Z,75.13
2022-11-24T13:08:58.183Z,75.10
2022-11-24T13:11:41.150Z,74.80
2022-11-24T13:14:20.266Z,74.63
2022-11-24T13:17:29.298Z,74.65
2022-11-24T13:19:53.859Z,74.66
2022-11-24T13:22:31.401Z,74.67
2022-11-24T13:25:22.556Z,74.41
2022-11-24T13:27:58.005Z,74.37
2022-11-24T13:31:09.843Z,74.50
2022-11-24T13:33:43.743Z,74.09
2022-11-24T13:36:33.969Z,74.08
2022-11-24T13:39:20.385Z,74.28
2022-11-24T13:42:09.783Z,74.10
2022-11-24T13:45:03.286Z,74.13
2022-11-24T13:47:41.926Z,73.95
2022-11-24T13:50:48.570Z,73.99
2022-11-24T13:53:34.358Z,74.13
2022-11-24T13:56:23.397Z,74.16
2022-11-24T13:58:58.261Z,74.01
2022-11-24T14:01:32.634Z,74.19
2022-11-24T14:04:31.907Z,73.99
2022-11-24T14:07:09.446Z,73.93
2022-11-24T14:09:47.355Z,73.84
2022-11-24T14:12:22.147Z,73.36
2022-11-24T14:14:56.862Z,73.01
2022-11-24T14:17:31.694Z,73.17
2022-11-24T14:20:25.437Z,73.08
2022-11-24T14:22:57.971Z,72.43
2022-11-24T14:25:33.390Z,72.36
2022-11-24T14:28:14.736Z,72.44
2022-11-24T14:30:47.179Z,72.55
2022-11-24T14:33:22.194Z,72.54
2022-11-24T14:35:55.423Z,72.52
2022-11-24T14:38:29.622Z,72.60
2022-11-24T14:41:25.608Z,72.55
2022-11-24T14:44:16.680Z,72.49
2022-11-24T14:46:49.764Z,72.52
2022-11-24T14:49:25.153Z,72.55
2022-11-24T14:52:03.668Z,72.47
2022-11-24T14:54:38.748Z,72.29
2022-11-24T14:57:27.273Z,72.37
2022-11-24T15:00:19.582Z,72.35
2022-11-24T15:02:54.833Z,71.83
2022-11-24T15:05:48.755Z,71.93
2022-11-24T15:08:23.364Z,71.67
2022-11-24T15:11:03.942Z,71.61
2022-11-24T15:13:40.363Z,71.87
2022-11-24T15:16:25.471Z,71.84
2022-11-24T15:19:03.457Z,71.92
2022-11-24T15:21:38.343Z,71.60
2022-11-24T15:24:18.958Z,71.48
2022-11-24T15:26:51.296Z,71.37
2022-11-24T15:29:24.038Z,71.45
2022-11-24T15:32:00.570Z,71.47
2022-11-24T15:34:33.296Z,71.43
2022-11-24T15:37:07.459Z,71.25
2022-11-24T15:39:39.821Z,71.08
2022-11-24T15:42:15.557Z,70.86
2022-11-24T15:44:49.602Z,70.99
2022-11-24T15:47:22.460Z,70.66
2022-11-24T15:49:54.964Z,70.70
2022-11-24T15:52:27.618Z,70.61
2022-11-24T15:55:00.456Z,70.46
2022-11-24T15:57:34.406Z,70.51
2022-11-24T16:00:08.982Z,70.18
2022-11-24T16:02:42.068Z,70.42
2022-11-24T16:05:16.935Z,70.48
2022-11-24T16:07:49.852Z,70.47
2022-11-24T16:10:28.200Z,70.53
2022-11-24T16:13:00.687Z,70.41
2022-11-24T16:15:33.372Z,70.33
2022-11-24T16:18:07.574Z,70.36
2022-11-24T16:20:40.906Z,70.35
2022-11-24T16:23:14.387Z,70.12
2022-11-24T16:25:47.056Z,70.30
2022-11-24T16:28:20.418Z,70.21
2022-11-24T16:30:54.057Z,70.14
2022-11-24T16:33:26.714Z,70.16
2022-11-24T16:35:59.813Z,70.08
2022-11-24T16:38:32.363Z,70.01
2022-11-24T16:41:04.918Z,70.03
2022-11-24T16:43:37.290Z,69.94
2022-11-24T16:46:21.176Z,70.12
2022-11-24T16:49:00.315Z,70.12
2022-11-24T16:51:35.201Z,70.17
2022-11-24T16:54:08.643Z,69.81
2022-11-24T16:56:44.111Z,69.92
2022-11-24T16:59:17.479Z,69.86
2022-11-24T17:01:52.186Z,70.00
2022-11-24T17:04:25.148Z,69.89
2022-11-24T17:06:59.388Z,69.95
2022-11-24T17:09:36.008Z,69.71
2022-11-24T17:12:14.270Z,69.69
2022-11-24T17:15:09.327Z,69.74
2022-11-24T17:17:55.207Z,69.82
2022-11-24T17:20:32.028Z,69.90
2022-11-24T17:23:04.759Z,69.92
2022-11-24T17:25:37.269Z,69.74
2022-11-24T17:28:11.053Z,69.85
2022-11-24T17:30:43.633Z,69.71
2022-11-24T17:33:15.974Z,69.88
2022-11-24T17:35:49.327Z,69.97
2022-11-24T17:38:22.338Z,69.71
2022-11-24T17:40:55.083Z,69.65
2022-11-24T17:43:28.774Z,69.87
2022-11-24T17:46:03.656Z,69.88
2022-11-24T17:48:38.582Z,69.66
2022-11-24T17:51:14.017Z,69.73
2022-11-24T17:53:49.486Z,69.89
2022-11-24T17:56:25.441Z,69.80
2022-11-24T17:59:01.197Z,69.53
2022-11-24T18:01:35.566Z,69.63
2022-11-24T18:04:08.251Z,69.70
2022-11-24T18:06:40.791Z,69.78
2022-11-24T18:09:13.523Z,69.70
2022-11-24T18:11:47.939Z,69.71
2022-11-24T18:14:20.492Z,69.75
2022-11-24T18:16:53.210Z,69.74
2022-11-24T18:19:26.434Z,69.71
2022-11-24T18:21:58.776Z,69.68
2022-11-24T18:24:31.081Z,69.64
2022-11-24T18:27:03.574Z,69.57
2022-11-24T18:29:36.112Z,69.79
2022-11-24T18:32:09.678Z,69.70
2022-11-24T18:34:43.363Z,69.64
2022-11-24T18:37:16.584Z,69.93
2022-11-24T18:39:48.931Z,69.95
2022-11-24T18:42:21.291Z,69.72
2022-11-24T18:44:54.479Z,69.62
2022-11-24T18:47:27.062Z,70.01
2022-11-24T18:50:00.534Z,69.64
2022-11-24T18:52:33.495Z,69.77
2022-11-24T18:55:06.780Z,69.65
2022-11-24T18:57:41.435Z,69.78
2022-11-24T19:00:18.935Z,69.84
2022-11-24T19:02:55.505Z,69.94
2022-11-24T19:05:30.104Z,69.94
2022-11-24T19:08:04.297Z,69.95
2022-11-24T19:10:42.040Z,69.87
2022-11-24T19:13:15.830Z,69.84
2022-11-24T19:15:52.170Z,69.69
2022-11-24T19:18:26.829Z,69.91
2022-11-24T19:21:02.682Z,69.82
2022-11-24T19:23:37.665Z,69.78
2022-11-24T19:26:11.965Z,70.07
2022-11-24T19:28:47.630Z,69.91
2022-11-24T19:31:20.971Z,69.92
2022-11-24T19:33:54.893Z,69.93
2022-11-24T19:36:28.106Z,69.97
2022-11-24T19:39:05.204Z,70.09
2022-11-24T19:41:40.748Z,70.12
2022-11-24T19:44:17.880Z,70.06
2022-11-24T19:46:50.343Z,69.98
2022-11-24T19:49:22.880Z,70.05
2022-11-24T19:51:56.753Z,70.07
2022-11-24T19:54:29.390Z,69.83
2022-11-24T19:57:01.722Z,69.79
2022-11-24T19:59:34.752Z,70.03
2022-11-24T20:02:10.465Z,69.92
2022-11-24T20:04:45.108Z,70.07
2022-11-24T20:07:19.154Z,70.04
2022-11-24T20:09:51.657Z,70.09
2022-11-24T20:12:24.441Z,70.09
2022-11-24T20:14:56.930Z,70.14
2022-11-24T20:17:33.017Z,70.14
2022-11-24T20:20:08.531Z,70.26
2022-11-24T20:22:42.581Z,70.16
2022-11-24T20:25:15.538Z,70.39
2022-11-24T20:27:48.024Z,70.30
2022-11-24T20:30:20.500Z,70.12
2022-11-24T20:32:53.095Z,70.12
2022-11-24T20:35:25.558Z,70.11
2022-11-24T20:37:59.941Z,70.34
2022-11-24T20:40:32.718Z,70.46
2022-11-24T20:43:05.502Z,70.47
2022-11-24T20:45:39.058Z,70.18
2022-11-24T20:48:12.414Z,70.24
2022-11-24T20:50:49.740Z,70.51
2022-11-24T20:53:24.596Z,70.31
2022-11-24T20:56:06.084Z,70.42
2022-11-24T20:58:41.657Z,70.53
2022-11-24T21:01:18.045Z,70.27
2022-11-24T21:03:56.401Z,70.26
2022-11-24T21:06:30.858Z,70.16
2022-11-24T21:09:04.114Z,70.25
2022-11-24T21:11:37.342Z,70.41
2022-11-24T21:14:10.455Z,70.34
2022-11-24T21:16:43.976Z,70.23
2022-11-24T21:19:18.889Z,70.34
2022-11-24T21:21:51.909Z,70.37
2022-11-24T21:24:24.692Z,70.34
2022-11-24T21:26:56.978Z,70.40
2022-11-24T21:29:29.691Z,70.45
2022-11-24T21:32:02.739Z,70.59
2022-11-24T21:34:35.402Z,70.33
2022-11-24T21:37:08.371Z,70.56
2022-11-24T21:39:44.690Z,70.58
2022-11-24T21:42:17.343Z,70.55
2022-11-24T21:44:50.362Z,70.38
2022-11-24T21:47:22.668Z,70.47
2022-11-24T21:49:55.550Z,70.43
2022-11-24T21:52:27.987Z,70.46
2022-11-24T21:55:01.141Z,70.52
2022-11-24T21:57:34.482Z,70.39
2022-11-24T22:00:12.054Z,70.25
2022-11-24T22:02:45.032Z,70.22
2022-11-24T22:05:18.008Z,70.64
2022-11-24T22:07:50.612Z,70.53
2022-11-24T22:10:23.509Z,70.47
2022-11-24T22:12:55.925Z,70.41
2022-11-24T22:15:28.596Z,70.46
2022-11-24T22:18:02.004Z,70.49
2022-11-24T22:20:34.770Z,70.57
2022-11-24T22:23:07.100Z,70.28
2022-11-24T22:25:39.593Z,70.47
2022-11-24T22:28:12.193Z,70.43
2022-11-24T22:30:44.675Z,70.45
2022-11-24T22:33:17.965Z,70.56
2022-11-24T22:35:59.722Z,70.55
2022-11-24T22:38:34.105Z,70.33
2022-11-24T22:41:08.522Z,70.41
2022-11-24T22:43:42.738Z,70.35
2022-11-24T22:46:17.921Z,70.24
2022-11-24T22:48:53.084Z,70.39
2022-11-24T22:51:27.950Z,70.42
2022-11-24T22:54:02.361Z,70.50
2022-11-24T22:56:35.738Z,70.29
2022-11-24T22:59:08.022Z,70.63
2022-11-24T23:01:40.448Z,70.38
2022-11-24T23:04:13.250Z,70.28
2022-11-24T23:06:45.903Z,70.36
2022-11-24T23:09:18.395Z,70.26
2022-11-24T23:11:51.835Z,70.58
2022-11-24T23:14:24.405Z,70.38
2022-11-24T23:17:00.898Z,70.55
2022-11-24T23:19:33.367Z,70.29
2022-11-24T23:22:05.852Z,70.29
2022-11-24T23:24:38.342Z,70.28
2022-11-24T23:27:10.719Z,70.09
2022-11-24T23:29:43.136Z,70.08
2022-11-24T23:32:15.619Z,70.44
2022-11-24T23:34:48.195Z,70.31
2022-11-24T23:37:26.454Z,70.17
2022-11-24T23:40:06.862Z,70.36
2022-11-24T23:42:40.775Z,70.39
2022-11-24T23:45:15.989Z,70.23
2022-11-24T23:47:49.973Z,70.43
2022-11-24T23:50:24.104Z,70.46
2022-11-24T23:52:58.617Z,70.46
2022-11-24T23:55:32.020Z,70.66
2022-11-24T23:58:05.295Z,70.56
